Time;durP1;ratioP1;P1;durP2;ratioP2;P2;SDS_P1;SDS_P2;PMS_P1;PMS_P2;Temp;Humidity;BMP_temperature;BMP_pressure;BME280_temperature;BME280_humidity;BME280_pressure;Samples;Min_cycle;Max_cycle;Signal;HPM_P1;HPM_P2
2022/07/05 00:00:05;;;;;;;4.47;3.15;;;24.10;65.70;;;;;;5094709;28;20487;-60
2022/07/05 00:02:31;;;;;;;3.85;3.42;;;24.10;65.70;;;;;;5091727;28;20027;-60
2022/07/05 00:04:56;;;;;;;5.22;3.60;;;24.00;65.80;;;;;;5096315;28;20023;-60
2022/07/05 00:07:22;;;;;;;5.03;3.85;;;24.00;65.50;;;;;;5098387;28;20103;-60
2022/07/05 00:09:51;;;;;;;4.90;3.85;;;24.00;65.50;;;;;;5100045;28;20387;-60
2022/07/05 00:12:18;;;;;;;4.47;4.00;;;24.00;65.50;;;;;;5097660;28;20044;-60
2022/07/05 00:14:45;;;;;;;4.85;3.70;;;24.00;65.50;;;;;;5104438;28;20024;-60
2022/07/05 00:17:12;;;;;;;5.25;3.60;;;24.00;65.50;;;;;;5096313;28;20388;-60
2022/07/05 00:19:38;;;;;;;4.32;3.67;;;24.00;65.70;;;;;;5099796;28;20024;-60
2022/07/05 00:22:04;;;;;;;4.03;3.45;;;23.90;65.60;;;;;;5099388;28;20407;-60
2022/07/05 00:24:29;;;;;;;3.47;3.03;;;23.90;65.50;;;;;;5098470;28;20021;-60
2022/07/05 00:26:55;;;;;;;3.97;3.58;;;23.90;65.60;;;;;;5096178;28;20055;-60
2022/07/05 00:29:21;;;;;;;3.95;3.50;;;23.90;65.60;;;;;;5096496;28;20024;-60
2022/07/05 00:31:47;;;;;;;3.83;3.15;;;23.90;65.70;;;;;;5093173;28;20031;-59
2022/07/05 00:34:13;;;;;;;4.18;3.33;;;23.90;65.70;;;;;;5094873;28;20475;-59
2022/07/05 00:36:39;;;;;;;4.00;3.60;;;23.80;65.60;;;;;;5095326;28;20027;-60
2022/07/05 00:39:05;;;;;;;4.13;3.53;;;23.80;65.70;;;;;;5098195;28;20035;-60
2022/07/05 00:41:31;;;;;;;5.75;3.78;;;23.80;65.60;;;;;;5099116;28;20055;-59
2022/07/05 00:44:09;;;;;;;3.63;3.20;;;23.80;65.70;;;;;;5102083;28;20577;-60
2022/07/05 00:46:35;;;;;;;4.15;3.50;;;23.80;65.90;;;;;;5094677;28;20106;-60
2022/07/05 00:49:02;;;;;;;4.20;3.10;;;23.80;66.40;;;;;;5075989;28;20051;-60
2022/07/05 00:51:30;;;;;;;4.00;3.55;;;23.70;65.90;;;;;;5099606;28;20507;-60
2022/07/05 00:53:57;;;;;;;3.95;3.47;;;23.70;65.70;;;;;;5100887;28;20422;-61
2022/07/05 00:56:24;;;;;;;4.15;3.75;;;23.70;65.70;;;;;;5099573;28;20024;-60
2022/07/05 00:58:50;;;;;;;4.50;3.25;;;23.70;65.60;;;;;;5096507;28;20035;-60
2022/07/05 01:01:16;;;;;;;5.10;3.88;;;23.70;65.80;;;;;;5103897;28;20720;-60
2022/07/05 01:03:42;;;;;;;4.50;3.67;;;23.60;65.60;;;;;;5106772;28;20468;-60
2022/07/05 01:06:10;;;;;;;4.20;3.70;;;23.60;65.80;;;;;;5095695;28;20485;-60
2022/07/05 01:08:39;;;;;;;4.82;4.10;;;23.60;65.90;;;;;;5100631;28;20109;-60
2022/07/05 01:11:06;;;;;;;4.88;3.88;;;23.60;65.90;;;;;;5097112;28;20177;-60
2022/07/05 01:13:33;;;;;;;4.25;3.80;;;23.50;65.80;;;;;;5108571;28;20012;-60
2022/07/05 01:15:59;;;;;;;5.25;3.95;;;23.50;65.80;;;;;;5096897;28;20443;-60
2022/07/05 01:18:25;;;;;;;4.60;3.70;;;23.50;65.60;;;;;;5101342;28;20027;-60
2022/07/05 01:20:51;;;;;;;4.43;3.95;;;23.50;65.70;;;;;;5106478;28;20074;-59
2022/07/05 01:23:18;;;;;;;4.63;4.00;;;23.50;65.80;;;;;;5102333;28;20098;-60
2022/07/05 01:25:48;;;;;;;4.25;3.80;;;23.50;65.70;;;;;;5099003;28;20031;-60
2022/07/05 01:28:14;;;;;;;4.38;3.90;;;23.50;65.60;;;;;;5103177;28;20395;-60
2022/07/05 01:30:42;;;;;;;4.60;3.50;;;23.60;65.60;;;;;;5099497;28;20027;-60
2022/07/05 01:33:08;;;;;;;5.25;3.97;;;23.50;65.60;;;;;;5095821;28;20032;-60
2022/07/05 01:35:35;;;;;;;5.13;3.83;;;23.50;65.60;;;;;;5106671;28;20028;-60
2022/07/05 01:38:01;;;;;;;4.43;3.58;;;23.50;65.70;;;;;;5103119;28;20051;-60
2022/07/05 01:40:27;;;;;;;3.95;3.55;;;23.50;65.60;;;;;;5101844;28;20063;-59
2022/07/05 01:42:53;;;;;;;4.40;3.55;;;23.50;65.70;;;;;;5107464;28;20032;-60
2022/07/05 01:48:08;;;;;;;5.55;3.95;;;23.50;65.70;;;;;;5095397;28;20133;-60
2022/07/05 01:50:38;;;;;;;;;;;23.50;65.80;;;;;;5093365;28;20028;-60
2022/07/05 01:53:04;;;;;;;3.78;3.28;;;23.50;66.00;;;;;;5105817;28;19954;-60
2022/07/05 01:55:30;;;;;;;5.55;3.67;;;23.40;65.80;;;;;;5083294;28;20110;-60
2022/07/05 01:57:57;;;;;;;3.75;3.30;;;23.40;65.90;;;;;;5108264;28;20336;-60
2022/07/05 02:00:22;;;;;;;4.10;3.55;;;23.40;66.20;;;;;;5098547;28;20035;-61
2022/07/05 02:02:49;;;;;;;4.60;3.80;;;23.40;66.10;;;;;;5094125;28;20028;-60
2022/07/05 02:05:15;;;;;;;5.57;4.03;;;23.40;66.40;;;;;;5095251;28;20440;-60
2022/07/05 02:07:50;;;;;;;4.22;3.40;;;23.40;66.30;;;;;;5107202;28;20028;-60
2022/07/05 02:10:16;;;;;;;4.78;3.70;;;23.40;66.40;;;;;;5102097;28;20399;-60
2022/07/05 02:12:42;;;;;;;4.25;3.67;;;23.30;66.50;;;;;;5105964;28;20019;-60
2022/07/05 02:15:08;;;;;;;4.13;3.72;;;23.30;66.40;;;;;;5100733;28;20020;-60
2022/07/05 02:17:34;;;;;;;4.78;3.92;;;23.30;66.50;;;;;;5104047;28;20054;-59
2022/07/05 02:19:59;;;;;;;4.20;3.80;;;23.30;66.60;;;;;;5096389;28;20020;-60
2022/07/05 02:22:25;;;;;;;4.65;3.72;;;23.30;66.60;;;;;;5104131;28;20024;-60
2022/07/05 02:24:51;;;;;;;5.25;4.25;;;23.30;66.60;;;;;;5099484;28;20036;-60
2022/07/05 02:27:17;;;;;;;4.55;3.90;;;23.30;66.70;;;;;;5104016;28;20383;-60
2022/07/05 02:29:43;;;;;;;4.40;3.92;;;23.30;66.90;;;;;;5098818;28;20361;-60
2022/07/05 02:32:08;;;;;;;6.00;4.65;;;23.40;66.70;;;;;;5094896;28;20081;-60
2022/07/05 02:34:34;;;;;;;5.35;4.10;;;23.40;66.60;;;;;;5098411;28;20023;-60
2022/07/05 02:37:00;;;;;;;6.03;4.20;;;23.40;66.80;;;;;;5101319;28;20920;-60
2022/07/05 02:39:25;;;;;;;4.95;4.40;;;23.40;66.60;;;;;;5105462;28;20023;-60
2022/07/05 02:41:51;;;;;;;5.07;4.10;;;23.50;66.80;;;;;;5101585;28;20403;-60
2022/07/05 02:44:17;;;;;;;5.38;4.45;;;23.50;66.90;;;;;;5105488;28;20020;-60
2022/07/05 02:46:42;;;;;;;5.50;4.50;;;23.50;67.10;;;;;;5092242;28;20059;-60
2022/07/05 02:49:08;;;;;;;4.80;4.28;;;23.60;67.00;;;;;;5096343;28;20070;-60
2022/07/05 02:51:33;;;;;;;5.35;4.55;;;23.60;67.10;;;;;;5098461;28;20039;-60
2022/07/05 02:53:59;;;;;;;5.80;4.82;;;23.70;67.00;;;;;;5096586;28;20020;-60
2022/07/05 02:56:25;;;;;;;5.88;5.10;;;23.80;66.80;;;;;;5096574;28;20020;-60
2022/07/05 02:58:50;;;;;;;5.47;4.93;;;23.80;66.60;;;;;;5102699;28;20058;-60
2022/07/05 03:01:16;;;;;;;6.72;5.60;;;23.90;66.40;;;;;;5098207;28;20028;-60
2022/07/05 03:03:42;;;;;;;6.00;5.18;;;24.00;66.30;;;;;;5101106;28;20026;-60
2022/07/05 03:06:07;;;;;;;5.68;4.65;;;24.00;66.10;;;;;;5097996;28;20028;-60
2022/07/05 03:08:33;;;;;;;5.90;4.78;;;24.20;66.00;;;;;;5094476;28;20020;-60
2022/07/05 03:10:59;;;;;;;5.70;4.75;;;24.20;66.00;;;;;;5099932;28;20039;-60
2022/07/05 03:13:24;;;;;;;4.93;4.35;;;24.30;66.10;;;;;;5099794;28;20497;-60
2022/07/05 03:15:50;;;;;;;5.18;4.35;;;24.40;65.90;;;;;;5098572;28;20543;-60
2022/07/05 03:18:16;;;;;;;5.18;4.53;;;24.50;65.80;;;;;;5099069;28;20085;-60
2022/07/05 03:20:41;;;;;;;5.45;4.53;;;24.60;65.70;;;;;;5098554;28;20034;-60
2022/07/05 03:23:07;;;;;;;4.63;4.13;;;24.70;65.50;;;;;;5091114;28;20089;-60
2022/07/05 03:25:33;;;;;;;4.93;4.22;;;24.80;65.20;;;;;;5101276;28;20581;-60
2022/07/05 03:27:58;;;;;;;5.68;4.63;;;24.90;65.10;;;;;;5096040;28;20051;-60
2022/07/05 03:30:24;;;;;;;5.93;4.47;;;25.00;65.10;;;;;;5102319;28;20508;-60
2022/07/05 03:32:50;;;;;;;5.38;4.70;;;25.10;64.90;;;;;;5099530;28;20135;-60
2022/07/05 03:35:16;;;;;;;7.68;5.85;;;25.20;64.70;;;;;;5099245;28;20093;-60
2022/07/05 03:37:41;;;;;;;7.30;5.75;;;25.20;64.50;;;;;;5095815;28;20024;-60
2022/07/05 03:40:08;;;;;;;6.43;5.55;;;25.20;64.20;;;;;;5101048;28;20081;-60
2022/07/05 03:42:35;;;;;;;5.40;4.55;;;25.40;64.50;;;;;;5101839;28;20024;-60
2022/07/05 03:45:01;;;;;;;4.60;4.15;;;25.40;64.70;;;;;;5099981;28;20028;-60
2022/07/05 03:47:27;;;;;;;5.35;4.35;;;25.70;65.20;;;;;;5095956;28;20126;-60
2022/07/05 03:49:54;;;;;;;4.85;4.10;;;26.10;65.60;;;;;;5096200;28;20103;-60
2022/07/05 03:52:19;;;;;;;5.10;4.30;;;26.70;66.00;;;;;;5103545;28;20103;-60
2022/07/05 03:54:45;;;;;;;5.18;3.90;;;27.60;65.80;;;;;;5099724;28;20098;-60
2022/07/05 03:57:12;;;;;;;5.07;4.22;;;28.60;64.80;;;;;;5098983;28;20027;-60
2022/07/05 03:59:38;;;;;;;4.53;3.88;;;29.60;63.70;;;;;;5100589;28;20028;-58
2022/07/05 04:02:04;;;;;;;3.67;3.28;;;30.70;62.60;;;;;;5097077;28;20043;-58
2022/07/05 04:04:30;;;;;;;4.20;3.72;;;31.70;61.40;;;;;;5094655;28;20055;-58
2022/07/05 04:06:55;;;;;;;5.93;3.90;;;32.60;60.10;;;;;;5095367;28;20016;-58
2022/07/05 04:09:21;;;;;;;5.00;4.38;;;33.50;58.80;;;;;;5096594;28;20047;-58
2022/07/05 04:11:47;;;;;;;4.95;3.95;;;34.40;57.30;;;;;;5097102;28;20383;-58
2022/07/05 04:14:12;;;;;;;4.93;4.35;;;35.30;56.00;;;;;;5099435;28;20016;-56
2022/07/05 04:16:38;;;;;;;4.60;4.05;;;36.00;54.70;;;;;;5100319;28;20019;-58
2022/07/05 04:19:04;;;;;;;4.93;3.80;;;36.70;53.40;;;;;;5097678;28;20040;-58
2022/07/05 04:21:30;;;;;;;4.20;3.80;;;37.40;52.40;;;;;;5100565;28;20047;-58
2022/07/05 04:23:55;;;;;;;4.13;3.72;;;38.00;51.50;;;;;;5093910;28;20024;-58
2022/07/05 04:26:21;;;;;;;4.65;4.15;;;38.40;50.40;;;;;;5107679;28;20042;-58
2022/07/05 04:28:46;;;;;;;6.75;4.55;;;38.70;49.40;;;;;;5102533;28;20683;-58
2022/07/05 04:31:12;;;;;;;6.45;5.00;;;39.00;48.70;;;;;;5099459;28;20024;-58
2022/07/05 04:33:38;;;;;;;4.38;3.97;;;39.20;48.10;;;;;;5095550;28;20016;-58
2022/07/05 04:36:04;;;;;;;6.22;4.00;;;39.50;48.00;;;;;;5104348;28;20042;-58
2022/07/05 04:38:29;;;;;;;4.22;3.83;;;39.80;47.80;;;;;;5108184;28;20494;-58
2022/07/05 04:40:55;;;;;;;4.18;3.33;;;40.20;47.60;;;;;;5100260;28;20030;-58
2022/07/05 04:43:21;;;;;;;4.13;3.17;;;40.60;47.30;;;;;;5097230;28;20488;-58
2022/07/05 04:45:46;;;;;;;4.53;4.05;;;41.00;47.00;;;;;;5107742;28;20391;-59
2022/07/05 04:48:12;;;;;;;4.18;3.60;;;41.30;46.60;;;;;;5097795;28;20043;-59
2022/07/05 04:50:38;;;;;;;3.45;3.13;;;41.70;46.40;;;;;;5090117;28;20028;-59
2022/07/05 04:53:03;;;;;;;3.72;3.30;;;41.90;46.20;;;;;;5096449;28;20031;-58
2022/07/05 04:55:30;;;;;;;4.95;3.85;;;42.30;46.10;;;;;;5098544;28;20481;-59
2022/07/05 04:57:55;;;;;;;3.83;3.35;;;42.50;45.80;;;;;;5098534;28;20506;-59
2022/07/05 05:00:21;;;;;;;3.75;3.35;;;42.80;45.60;;;;;;5105801;27;20036;-59
2022/07/05 05:02:47;;;;;;;4.18;3.70;;;43.00;45.40;;;;;;5102541;28;20058;-60
2022/07/05 05:05:12;;;;;;;4.00;3.55;;;43.20;45.10;;;;;;5110489;28;20035;-60
2022/07/05 05:07:42;;;;;;;4.50;4.03;;;43.50;44.90;;;;;;5098024;28;20028;-60
2022/07/05 05:10:17;;;;;;;5.55;4.50;;;43.60;44.70;;;;;;5098255;28;20538;-62
2022/07/05 05:12:42;;;;;;;4.10;3.70;;;43.70;44.30;;;;;;5100750;28;20099;-60
2022/07/05 05:15:09;;;;;;;4.80;4.30;;;43.80;44.10;;;;;;5104041;28;20111;-60
2022/07/05 05:17:43;;;;;;;4.63;3.70;;;43.90;44.20;;;;;;5095440;28;20109;-60
2022/07/05 05:20:14;;;;;;;4.63;3.80;;;43.90;43.60;;;;;;5098982;28;20058;-60
2022/07/05 05:22:40;;;;;;;4.55;4.07;;;43.90;43.40;;;;;;5097208;28;20031;-60
2022/07/05 05:25:06;;;;;;;3.42;3.13;;;43.90;42.80;;;;;;5102699;28;20386;-60
2022/07/05 05:27:32;;;;;;;5.60;5.05;;;43.80;42.50;;;;;;5099182;27;20042;-59
2022/07/05 05:29:57;;;;;;;4.78;4.15;;;43.60;42.10;;;;;;5102804;27;20027;-59
2022/07/05 05:32:23;;;;;;;4.63;4.13;;;43.00;42.00;;;;;;5094292;28;20450;-59
2022/07/05 05:34:49;;;;;;;4.05;3.65;;;42.40;42.30;;;;;;5097967;28;20124;-58
2022/07/05 05:37:14;;;;;;;5.82;5.00;;;41.60;42.60;;;;;;5101397;28;20016;-59
2022/07/05 05:39:40;;;;;;;5.07;4.10;;;40.70;43.10;;;;;;5095222;27;20030;-58
2022/07/05 05:42:06;;;;;;;4.97;4.40;;;39.90;43.90;;;;;;5093513;28;20032;-59
2022/07/05 05:44:32;;;;;;;6.10;4.45;;;39.10;44.40;;;;;;5093095;27;20618;-59
2022/07/05 05:46:57;;;;;;;6.20;4.72;;;38.30;44.90;;;;;;5091278;27;20504;-59
2022/07/05 05:49:23;;;;;;;4.45;4.03;;;37.70;45.70;;;;;;5101715;27;20023;-59
2022/07/05 05:51:49;;;;;;;5.43;4.43;;;37.00;46.00;;;;;;5097304;28;20475;-59
2022/07/05 05:54:14;;;;;;;5.97;4.68;;;36.50;46.70;;;;;;5098624;27;20024;-59
2022/07/05 05:56:40;;;;;;;6.32;4.55;;;36.00;47.10;;;;;;5093511;27;20154;-59
2022/07/05 05:59:06;;;;;;;5.28;4.20;;;35.60;47.40;;;;;;5098702;28;20062;-59
2022/07/05 06:01:31;;;;;;;5.07;4.10;;;35.20;47.80;;;;;;5095629;27;20038;-59
2022/07/05 06:03:57;;;;;;;5.40;4.30;;;34.90;48.10;;;;;;5092589;28;20031;-59
2022/07/05 06:06:22;;;;;;;4.40;3.97;;;34.50;48.40;;;;;;5091130;28;20078;-59
2022/07/05 06:08:48;;;;;;;5.18;4.25;;;34.30;49.00;;;;;;5090108;28;20036;-59
2022/07/05 06:11:14;;;;;;;6.15;4.93;;;34.00;49.40;;;;;;5091196;27;20035;-57
2022/07/05 06:13:40;;;;;;;5.68;4.32;;;33.70;49.80;;;;;;5088570;28;22104;-59
2022/07/05 06:16:08;;;;;;;5.18;3.90;;;33.50;50.20;;;;;;5094484;27;20020;-58
2022/07/05 06:18:34;;;;;;;4.88;4.38;;;33.30;50.50;;;;;;5083831;27;20153;-59
2022/07/05 06:21:00;;;;;;;5.60;4.43;;;33.10;50.80;;;;;;5093451;28;20069;-60
2022/07/05 06:23:25;;;;;;;6.43;5.20;;;33.00;51.30;;;;;;5084865;28;20552;-59
2022/07/05 06:25:51;;;;;;;5.63;4.82;;;32.80;51.50;;;;;;5088775;27;20032;-59
2022/07/05 06:28:17;;;;;;;5.57;3.90;;;32.60;51.80;;;;;;5087413;27;20055;-59
2022/07/05 06:30:43;;;;;;;4.00;3.60;;;32.50;52.10;;;;;;5088421;27;20032;-60
2022/07/05 06:33:08;;;;;;;6.68;4.15;;;32.40;52.30;;;;;;5083384;27;20122;-60
2022/07/05 06:35:34;;;;;;;5.60;4.57;;;32.30;52.40;;;;;;5086983;27;20089;-59
2022/07/05 06:38:04;;;;;;;4.82;4.15;;;32.30;52.30;;;;;;5089051;28;20057;-60
2022/07/05 06:40:38;;;;;;;5.38;4.63;;;32.30;52.40;;;;;;5083072;27;20104;-60
2022/07/05 06:43:07;;;;;;;4.45;4.05;;;32.30;52.50;;;;;;5077808;27;20028;-60
2022/07/05 06:45:33;;;;;;;5.28;4.45;;;32.30;52.50;;;;;;5082648;27;20384;-59
2022/07/05 06:48:06;;;;;;;6.43;5.60;;;32.20;52.70;;;;;;5085763;27;20555;-61
2022/07/05 06:50:38;;;;;;;4.55;4.00;;;32.10;52.80;;;;;;5081181;27;20030;-61
2022/07/05 06:53:04;;;;;;;5.90;4.88;;;32.10;53.00;;;;;;5085592;28;20081;-62
2022/07/05 06:55:32;;;;;;;7.07;5.32;;;32.00;53.10;;;;;;5085498;27;20052;-60
2022/07/05 06:57:59;;;;;;;5.00;4.32;;;31.90;53.20;;;;;;5077520;28;20039;-61
2022/07/05 07:00:26;;;;;;;6.28;4.85;;;31.90;53.40;;;;;;5081317;27;20028;-61
2022/07/05 07:02:51;;;;;;;5.55;4.80;;;31.80;53.60;;;;;;5077396;27;20040;-61
2022/07/05 07:05:17;;;;;;;5.30;4.53;;;31.80;53.60;;;;;;5082726;27;20086;-58
2022/07/05 07:10:27;;;;;;;4.47;3.92;;;31.80;53.90;;;;;;5077527;27;20048;-59
2022/07/05 07:12:53;;;;;;;4.38;3.88;;;31.70;54.00;;;;;;5078133;27;20032;-59
2022/07/05 07:15:19;;;;;;;5.38;3.97;;;31.80;54.30;;;;;;5079427;27;20637;-58
2022/07/05 07:17:44;;;;;;;3.95;3.55;;;31.80;54.50;;;;;;5077469;27;20037;-61
2022/07/05 07:20:10;;;;;;;5.05;3.67;;;31.70;54.40;;;;;;5084603;27;20494;-59
2022/07/05 07:22:36;;;;;;;4.13;3.70;;;31.80;54.40;;;;;;5079853;28;20035;-58
2022/07/05 07:25:05;;;;;;;5.75;4.45;;;31.80;54.20;;;;;;5086106;28;20782;-59
2022/07/05 07:27:31;;;;;;;4.07;3.67;;;31.80;54.10;;;;;;5085127;27;20598;-59
2022/07/05 07:29:56;;;;;;;5.32;4.05;;;31.70;53.90;;;;;;5076934;27;20364;-58
2022/07/05 07:32:22;;;;;;;4.20;3.22;;;31.70;54.00;;;;;;5076367;27;20088;-59
2022/07/05 07:34:48;;;;;;;4.18;3.47;;;31.70;54.00;;;;;;5083153;28;20063;-60
2022/07/05 07:37:13;;;;;;;3.90;3.50;;;31.60;54.00;;;;;;5075565;28;20020;-58
2022/07/05 07:39:40;;;;;;;3.58;3.13;;;31.50;54.00;;;;;;5078015;28;20052;-60
2022/07/05 07:42:07;;;;;;;3.50;3.20;;;31.40;54.10;;;;;;5080098;27;20057;-61
2022/07/05 07:44:33;;;;;;;3.40;3.10;;;31.30;54.20;;;;;;5078454;28;20119;-60
2022/07/05 07:46:58;;;;;;;4.88;3.20;;;31.20;54.40;;;;;;5073318;28;20024;-59
2022/07/05 07:49:24;;;;;;;3.60;3.15;;;31.10;54.50;;;;;;5074241;28;20052;-61
2022/07/05 07:51:51;;;;;;;3.95;3.50;;;31.10;54.50;;;;;;5083201;28;20039;-60
2022/07/05 07:54:17;;;;;;;4.20;3.30;;;31.00;54.80;;;;;;5078389;28;20108;-60
2022/07/05 07:56:43;;;;;;;4.15;3.20;;;31.00;54.80;;;;;;5072715;28;20050;-61
2022/07/05 07:59:09;;;;;;;4.18;3.17;;;30.90;55.20;;;;;;5076397;28;20785;-63
2022/07/05 08:01:35;;;;;;;3.90;2.97;;;30.90;55.10;;;;;;5082815;28;20034;-61
2022/07/05 08:04:01;;;;;;;3.33;3.03;;;30.80;55.20;;;;;;5071612;28;20032;-60
2022/07/05 08:06:26;;;;;;;2.95;2.72;;;30.80;55.30;;;;;;5075937;28;20515;-60
2022/07/05 08:08:52;;;;;;;3.38;2.95;;;30.80;55.40;;;;;;5082759;27;20024;-60
2022/07/05 08:11:17;;;;;;;3.78;3.13;;;30.70;55.30;;;;;;5086518;27;20057;-60
2022/07/05 08:13:43;;;;;;;4.35;3.10;;;30.70;55.60;;;;;;5078211;28;20036;-59
2022/07/05 08:16:10;;;;;;;3.10;2.80;;;30.70;55.60;;;;;;5084171;27;20023;-60
2022/07/05 08:21:37;;;;;;;3.17;2.88;;;30.70;55.90;;;;;;5083253;27;20034;-61
2022/07/05 08:24:08;;;;;;;3.30;3.00;;;30.70;55.90;;;;;;5083220;27;20038;-61
2022/07/05 08:26:35;;;;;;;3.20;2.90;;;30.70;56.20;;;;;;5084358;27;20024;-62
2022/07/05 08:29:02;;;;;;;3.10;2.80;;;30.70;56.40;;;;;;5091040;27;20123;-63
2022/07/05 08:31:30;;;;;;;3.53;2.92;;;30.70;56.50;;;;;;5063596;28;20459;-60
2022/07/05 08:33:56;;;;;;;3.05;2.75;;;30.70;56.70;;;;;;5089529;27;20019;-60
2022/07/05 08:36:22;;;;;;;3.35;2.95;;;30.70;56.80;;;;;;5085645;27;20031;-61
2022/07/05 08:38:48;;;;;;;2.95;2.67;;;30.70;57.00;;;;;;5083990;27;20024;-60
2022/07/05 08:41:18;;;;;;;2.95;2.58;;;30.60;56.70;;;;;;5076830;28;20114;-61
2022/07/05 08:43:46;;;;;;;2.78;2.58;;;30.50;56.70;;;;;;5088338;27;20027;-60
2022/07/05 08:46:13;;;;;;;2.90;2.65;;;30.50;56.50;;;;;;5083714;27;20036;-60
2022/07/05 08:48:44;;;;;;;2.50;2.30;;;30.40;56.30;;;;;;5082834;27;20185;-60
2022/07/05 08:51:20;;;;;;;2.67;2.45;;;30.30;56.10;;;;;;5078979;27;20023;-60
2022/07/05 08:53:47;;;;;;;3.40;2.42;;;30.30;56.10;;;;;;5077474;27;20510;-61
2022/07/05 08:56:13;;;;;;;4.88;4.13;;;30.20;56.00;;;;;;5074881;27;20070;-60
2022/07/05 08:58:40;;;;;;;3.40;3.10;;;30.20;56.00;;;;;;5080115;27;20023;-60
2022/07/05 09:01:07;;;;;;;3.22;2.90;;;30.20;55.90;;;;;;5072053;27;20074;-60
2022/07/05 09:03:45;;;;;;;2.90;2.70;;;30.10;55.90;;;;;;5081039;27;20039;-58
2022/07/05 09:06:13;;;;;;;2.90;2.55;;;30.10;55.70;;;;;;5085691;28;20042;-60
2022/07/05 09:08:40;;;;;;;2.95;2.60;;;30.10;55.80;;;;;;5087830;27;20032;-60
2022/07/05 09:11:12;;;;;;;2.60;2.40;;;30.10;55.60;;;;;;5078699;27;20031;-59
2022/07/05 09:13:49;;;;;;;2.40;2.20;;;30.00;55.60;;;;;;5078839;27;20084;-60
2022/07/05 09:16:15;;;;;;;2.88;2.40;;;30.00;55.70;;;;;;5081086;28;20188;-59
2022/07/05 09:18:49;;;;;;;2.30;2.10;;;30.10;56.00;;;;;;5076628;28;20459;-60
2022/07/05 09:21:19;;;;;;;2.42;2.22;;;30.10;55.90;;;;;;5076508;27;20035;-59
2022/07/05 09:23:54;;;;;;;2.38;2.10;;;30.10;55.90;;;;;;5079531;27;20046;-60
2022/07/05 09:26:19;;;;;;;2.33;2.13;;;30.10;55.90;;;;;;5075986;28;20036;-60
2022/07/05 09:28:55;;;;;;;4.30;3.67;;;30.20;56.00;;;;;;5071601;27;20133;-60
2022/07/05 09:31:29;;;;;;;3.80;3.15;;;30.20;56.10;;;;;;5069176;27;20114;-60
2022/07/05 09:33:56;;;;;;;3.08;2.63;;;30.20;55.80;;;;;;5080291;27;20042;-60
2022/07/05 09:36:22;;;;;;;2.80;2.60;;;30.20;55.60;;;;;;5079200;27;20054;-60
2022/07/05 09:38:51;;;;;;;3.22;2.33;;;30.20;55.40;;;;;;5074679;27;20684;-59
2022/07/05 09:41:17;;;;;;;2.45;2.25;;;30.20;55.30;;;;;;5072488;27;20036;-58
2022/07/05 09:43:43;;;;;;;3.38;2.90;;;30.20;55.30;;;;;;5067332;27;20091;-59
2022/07/05 09:46:12;;;;;;;2.47;2.28;;;30.20;55.20;;;;;;5078725;27;20091;-59
2022/07/05 09:48:52;;;;;;;3.53;2.35;;;30.10;55.00;;;;;;5085670;27;20461;-59
2022/07/05 09:51:17;;;;;;;2.95;2.55;;;30.10;55.10;;;;;;5074813;27;20028;-60
2022/07/05 09:53:54;;;;;;;2.60;2.40;;;30.10;55.10;;;;;;5066028;27;20415;-60
2022/07/05 09:56:21;;;;;;;2.38;2.17;;;30.10;55.00;;;;;;5072728;27;20874;-60
2022/07/05 09:58:47;;;;;;;2.92;2.60;;;30.10;55.00;;;;;;5080588;27;20032;-60
2022/07/05 10:01:26;;;;;;;2.55;2.28;;;30.10;55.00;;;;;;5078063;27;20024;-59
2022/07/05 10:03:56;;;;;;;2.50;2.30;;;30.00;55.20;;;;;;5075052;27;20035;-59
2022/07/05 10:06:26;;;;;;;2.75;2.20;;;30.00;55.10;;;;;;5073690;27;20092;-59
2022/07/05 10:08:55;;;;;;;2.92;2.45;;;30.00;55.20;;;;;;5076317;27;20028;-59
2022/07/05 10:11:22;;;;;;;3.08;2.67;;;29.90;55.10;;;;;;5074840;28;20039;-60
2022/07/05 10:13:50;;;;;;;3.40;2.92;;;29.90;54.90;;;;;;5081931;27;20035;-59
2022/07/05 10:16:17;;;;;;;4.18;3.20;;;29.90;54.80;;;;;;5081357;27;20402;-59
2022/07/05 10:18:47;;;;;;;3.10;2.35;;;29.80;54.90;;;;;;5083611;27;20140;-60
2022/07/05 10:21:15;;;;;;;3.35;2.90;;;29.70;54.80;;;;;;5088547;27;20090;-60
2022/07/05 10:23:53;;;;;;;2.92;2.50;;;29.70;54.90;;;;;;5077261;27;20037;-60
2022/07/05 10:26:20;;;;;;;2.38;2.17;;;29.70;54.80;;;;;;5083462;27;20042;-60
2022/07/05 10:28:50;;;;;;;5.25;2.95;;;29.70;55.00;;;;;;5074681;27;20036;-60
2022/07/05 10:31:16;;;;;;;3.70;3.10;;;29.60;54.80;;;;;;5079305;28;20085;-60
2022/07/05 10:33:43;;;;;;;4.88;3.70;;;29.60;54.50;;;;;;5076712;27;20776;-59
2022/07/05 10:36:13;;;;;;;3.60;3.03;;;29.60;54.50;;;;;;5076962;27;20042;-59
2022/07/05 10:38:44;;;;;;;2.72;2.45;;;29.50;54.80;;;;;;5083457;27;20052;-59
2022/07/05 10:41:13;;;;;;;4.30;3.25;;;29.50;54.60;;;;;;5096785;27;20407;-59
2022/07/05 10:43:39;;;;;;;4.97;3.30;;;29.50;54.80;;;;;;5086311;27;20036;-60
2022/07/05 10:46:07;;;;;;;3.83;3.10;;;29.50;54.70;;;;;;5080595;27;20039;-60
2022/07/05 10:48:34;;;;;;;2.60;2.38;;;29.40;54.50;;;;;;5083783;27;20058;-59
2022/07/05 10:51:14;;;;;;;2.63;2.42;;;29.40;54.60;;;;;;5074196;27;20032;-59
2022/07/05 10:53:39;;;;;;;2.83;2.53;;;29.40;54.30;;;;;;5081688;27;20027;-58
2022/07/05 10:56:05;;;;;;;3.35;2.40;;;29.40;54.40;;;;;;5092014;27;20679;-60
2022/07/05 10:58:43;;;;;;;3.28;2.88;;;29.40;54.30;;;;;;5083943;27;23045;-59
2022/07/05 11:01:12;;;;;;;2.97;2.67;;;29.30;54.10;;;;;;5084942;27;20027;-59
2022/07/05 11:03:38;;;;;;;2.90;2.30;;;29.30;54.10;;;;;;5076598;28;20056;-59
2022/07/05 11:06:06;;;;;;;2.30;2.10;;;29.30;54.00;;;;;;5074664;28;20035;-59
2022/07/05 11:09:06;;;;;;;2.30;2.10;;;29.30;54.00;;;;;;5067740;27;20042;-59
2022/07/05 11:11:35;;;;;;;2.20;2.00;;;29.20;53.90;;;;;;5075127;27;20887;-58
2022/07/05 11:14:03;;;;;;;2.53;2.03;;;29.20;53.80;;;;;;5081157;27;20174;-59
2022/07/05 11:16:33;;;;;;;2.38;1.83;;;29.20;53.90;;;;;;5073962;27;20042;-59
2022/07/05 11:19:20;;;;;;;2.42;2.10;;;29.20;53.90;;;;;;5074353;27;20683;-58
2022/07/05 11:22:07;;;;;;;2.22;2.03;;;29.20;53.90;;;;;;5088551;27;20024;-59
2022/07/05 11:24:35;;;;;;;2.30;2.10;;;29.20;53.50;;;;;;5084295;27;20045;-59
2022/07/05 11:27:04;;;;;;;2.38;2.17;;;29.10;53.40;;;;;;5082297;27;20127;-59
2022/07/05 11:29:48;;;;;;;2.28;1.90;;;29.20;53.50;;;;;;5085237;27;20517;-59
2022/07/05 11:32:18;;;;;;;2.15;1.90;;;29.20;53.00;;;;;;5080916;27;21127;-60
2022/07/05 11:34:46;;;;;;;2.03;1.88;;;29.10;52.70;;;;;;5092885;27;20035;-59
2022/07/05 11:37:14;;;;;;;1.55;1.42;;;29.10;52.50;;;;;;5076021;27;20062;-59
2022/07/05 11:39:44;;;;;;;1.63;1.52;;;29.10;52.50;;;;;;5073852;27;20034;-60
2022/07/05 11:42:11;;;;;;;1.92;1.80;;;29.00;52.30;;;;;;5078978;27;20952;-59
2022/07/05 11:44:40;;;;;;;2.10;1.75;;;29.10;52.40;;;;;;5082098;27;20036;-58
2022/07/05 11:47:06;;;;;;;2.20;2.00;;;29.10;52.40;;;;;;5081856;27;20526;-59
2022/07/05 11:49:32;;;;;;;3.10;2.25;;;29.00;52.10;;;;;;5080937;28;20487;-59
2022/07/05 11:52:00;;;;;;;2.10;1.90;;;29.00;52.00;;;;;;5080530;28;20019;-60
2022/07/05 11:54:29;;;;;;;2.10;1.70;;;29.00;51.90;;;;;;5074624;28;20028;-60
2022/07/05 11:56:55;;;;;;;2.10;1.90;;;29.00;51.80;;;;;;5075776;28;20112;-61
2022/07/05 11:59:23;;;;;;;2.53;1.77;;;29.00;51.90;;;;;;5076873;28;20028;-60
2022/07/05 12:01:49;;;;;;;1.83;1.73;;;29.10;52.00;;;;;;5075501;28;20207;-61
2022/07/05 12:04:23;;;;;;;2.60;2.03;;;29.10;52.10;;;;;;5072684;28;20050;-60
2022/07/05 12:06:49;;;;;;;1.95;1.75;;;29.10;52.10;;;;;;5058267;28;20032;-60
2022/07/05 12:09:21;;;;;;;2.42;2.20;;;29.10;52.20;;;;;;5075482;28;20040;-60
2022/07/05 12:14:50;;;;;;;1.90;1.80;;;29.10;52.10;;;;;;5077896;28;20080;-60
2022/07/05 12:17:18;;;;;;;2.35;2.15;;;29.10;52.40;;;;;;5075467;28;20114;-59
2022/07/05 12:19:45;;;;;;;2.80;2.30;;;29.10;52.30;;;;;;5085595;28;20039;-60
2022/07/05 12:22:11;;;;;;;4.38;2.95;;;29.10;52.40;;;;;;5080678;28;20403;-59
2022/07/05 12:24:37;;;;;;;2.55;2.30;;;29.10;52.20;;;;;;5085300;28;20028;-60
2022/07/05 12:27:03;;;;;;;2.80;2.60;;;29.10;52.10;;;;;;5080418;28;20032;-60
2022/07/05 12:29:30;;;;;;;2.83;2.50;;;29.10;52.20;;;;;;5072514;28;20031;-61
2022/07/05 12:32:04;;;;;;;2.03;1.92;;;29.10;52.20;;;;;;5081108;28;20128;-58
2022/07/05 12:34:31;;;;;;;2.22;2.03;;;29.10;52.20;;;;;;5073994;28;20032;-58
2022/07/05 12:36:58;;;;;;;2.35;2.15;;;29.10;52.10;;;;;;5086859;28;20028;-60
2022/07/05 12:39:23;;;;;;;2.80;2.30;;;29.10;52.80;;;;;;5077477;28;20055;-60
2022/07/05 12:41:49;;;;;;;2.65;2.42;;;29.10;52.20;;;;;;5081487;28;20149;-60
2022/07/05 12:44:19;;;;;;;3.10;2.80;;;29.00;52.20;;;;;;5079829;28;21630;-61
2022/07/05 12:46:46;;;;;;;2.38;2.10;;;29.10;52.50;;;;;;5075059;28;20032;-60
2022/07/05 12:49:12;;;;;;;2.65;2.45;;;29.10;52.50;;;;;;5068598;28;20526;-60
2022/07/05 12:51:40;;;;;;;2.20;2.00;;;29.10;52.50;;;;;;5071945;28;20146;-60
2022/07/05 13:00:05;;;;;;;2.75;2.47;;;29.10;52.60;;;;;;5083597;27;20558;-61
2022/07/05 13:02:38;;;;;;;2.97;2.55;;;29.10;52.70;;;;;;5088695;27;20070;-61
2022/07/05 13:05:25;;;;;;;3.03;2.35;;;29.10;52.80;;;;;;5076302;27;20044;-61